Terminal Aerodrome Forecast
Issued by NWS Sterling, VA

Current Version | Previous Version | Graphics & Text | Print | Product List | Glossary On
Versions: 1 2 3 4 5 6 7 8 9 10 11 12 13 14 15 16 17 18 19 20 21 22 23 24 25 26 27 28 29 30
000
FTUS41 KLWX 012333
TAFDCA
TAF
KDCA 012333Z 0200/0224 VRB15KT 3SM TSRA OVC050CB
     FM020100 VRB04KT P6SM SCT200
     FM021600 15005KT P6SM SCT050 BKN080 BKN200
     FM022000 15005KT P6SM BKN050 BKN120=

USA.gov is the U.S. government's official web portal to all federal, state and local government web resources and services.